createdAt,value
2018-03-17T00:01:56.904Z,3.50
2018-03-17T00:04:24.401Z,4.15
2018-03-17T00:06:51.914Z,3.62
2018-03-17T00:09:20.173Z,3.83
2018-03-17T00:11:47.661Z,4.35
2018-03-17T00:14:15.159Z,4.10
2018-03-17T00:16:42.658Z,4.00
2018-03-17T00:19:10.939Z,4.15
2018-03-17T00:21:39.425Z,4.30
2018-03-17T00:24:07.683Z,4.65
2018-03-17T00:26:35.196Z,3.65
2018-03-17T00:29:02.687Z,4.57
2018-03-17T00:31:30.207Z,3.87
2018-03-17T00:33:57.691Z,4.03
2018-03-17T00:36:25.179Z,3.80
2018-03-17T00:38:52.691Z,4.10
2018-03-17T00:41:20.188Z,4.50
2018-03-17T00:43:47.712Z,3.70
2018-03-17T00:46:15.962Z,4.60
2018-03-17T00:48:44.210Z,4.05
2018-03-17T00:51:12.741Z,3.60
2018-03-17T00:53:40.224Z,3.65
2018-03-17T00:56:07.743Z,4.00
2018-03-17T00:58:35.235Z,4.70
2018-03-17T01:01:02.718Z,4.05
2018-03-17T01:03:30.227Z,4.35
2018-03-17T01:05:57.720Z,4.10
2018-03-17T01:08:25.223Z,4.28
2018-03-17T01:10:53.476Z,3.72
2018-03-17T01:13:20.963Z,3.83
2018-03-17T01:15:49.236Z,4.12
2018-03-17T01:18:17.494Z,3.70
2018-03-17T01:20:45.003Z,4.07
2018-03-17T01:23:12.522Z,4.07
2018-03-17T01:25:40.781Z,4.40
2018-03-17T01:28:08.286Z,3.92
2018-03-17T01:30:35.794Z,4.07
2018-03-17T01:33:03.299Z,3.90
2018-03-17T01:35:30.783Z,3.25
2018-03-17T01:37:58.278Z,4.05
2018-03-17T01:40:25.788Z,3.58
2018-03-17T01:42:53.297Z,3.78
2018-03-17T01:45:21.130Z,4.22
2018-03-17T01:47:48.619Z,4.57
2018-03-17T01:50:16.107Z,4.75
2018-03-17T01:52:44.599Z,4.82
2018-03-17T01:55:12.851Z,5.10
2018-03-17T01:57:40.351Z,3.95
2018-03-17T02:00:07.847Z,4.93
2018-03-17T02:02:35.363Z,5.07
2018-03-17T02:05:02.847Z,4.62
2018-03-17T02:07:30.335Z,5.50
2018-03-17T02:09:57.844Z,4.12
2018-03-17T02:12:25.335Z,4.75
2018-03-17T02:14:52.847Z,4.00
2018-03-17T02:17:21.117Z,5.05
2018-03-17T02:19:49.391Z,4.60
2018-03-17T02:22:17.667Z,6.53
2018-03-17T02:24:45.939Z,5.65
2018-03-17T02:27:14.224Z,6.30
2018-03-17T02:29:42.479Z,6.70
2018-03-17T02:32:09.969Z,6.35
2018-03-17T02:34:38.240Z,5.95
2018-03-17T02:37:06.511Z,7.10
2018-03-17T02:39:34.787Z,6.95
2018-03-17T02:42:03.060Z,7.00
2018-03-17T02:44:30.567Z,7.90
2018-03-17T02:46:58.085Z,8.82
2018-03-17T02:49:26.348Z,9.10
2018-03-17T02:51:53.896Z,9.48
2018-03-17T02:54:21.387Z,10.70
2018-03-17T02:56:49.641Z,10.82
2018-03-17T02:59:17.164Z,10.02
2018-03-17T03:01:44.876Z,10.93
2018-03-17T03:04:12.397Z,11.05
2018-03-17T03:06:39.884Z,11.20
2018-03-17T03:09:07.382Z,10.25
2018-03-17T03:11:34.897Z,11.95
2018-03-17T03:14:02.379Z,13.20
2018-03-17T03:16:30.664Z,12.50
2018-03-17T03:18:58.923Z,11.95
2018-03-17T03:21:26.417Z,13.75
2018-03-17T03:23:53.922Z,12.70
2018-03-17T03:26:21.420Z,14.35
2018-03-17T03:28:49.699Z,13.38
2018-03-17T03:31:17.960Z,13.68
2018-03-17T03:33:45.452Z,13.30
2018-03-17T03:36:12.961Z,16.80
2018-03-17T03:38:40.460Z,14.93
2018-03-17T03:41:08.733Z,18.80
2018-03-17T03:43:36.465Z,15.93
2018-03-17T03:46:03.971Z,16.27
2018-03-17T03:48:31.471Z,16.30
2018-03-17T03:50:59.211Z,16.83
2018-03-17T03:53:27.038Z,17.02
2018-03-17T03:55:55.303Z,17.80
2018-03-17T03:58:23.574Z,18.10
2018-03-17T04:00:51.084Z,26.23
2018-03-17T04:03:18.578Z,27.17
2018-03-17T04:05:46.098Z,16.60
2018-03-17T04:08:13.604Z,19.20
2018-03-17T04:10:41.099Z,17.95
2018-03-17T04:13:09.367Z,20.10
2018-03-17T04:15:37.631Z,24.73
2018-03-17T04:18:05.144Z,24.02
2018-03-17T04:20:32.673Z,18.73
2018-03-17T04:23:00.939Z,17.62
2018-03-17T04:25:29.222Z,23.55
2018-03-17T04:27:57.485Z,17.92
2018-03-17T04:30:24.995Z,20.80
2018-03-17T04:32:52.492Z,18.62
2018-03-17T04:35:19.979Z,18.15
2018-03-17T04:37:47.495Z,19.15
2018-03-17T04:40:14.982Z,20.00
2018-03-17T04:42:42.495Z,20.15
2018-03-17T04:45:09.983Z,17.67
2018-03-17T04:47:37.481Z,26.00
2018-03-17T04:50:05.810Z,20.88
2018-03-17T04:52:33.305Z,18.65
2018-03-17T04:55:01.584Z,24.58
2018-03-17T04:57:29.844Z,32.90
2018-03-17T04:59:57.358Z,28.27
2018-03-17T05:02:24.863Z,23.52
2018-03-17T05:04:52.350Z,20.12
2018-03-17T05:07:20.875Z,20.77
2018-03-17T05:09:48.372Z,20.15
2018-03-17T05:12:16.632Z,24.48
2018-03-17T05:14:44.143Z,22.08
2018-03-17T05:17:11.635Z,19.65
2018-03-17T05:19:39.150Z,20.45
2018-03-17T05:22:06.647Z,21.83
2018-03-17T05:24:34.148Z,20.52
2018-03-17T05:27:02.429Z,31.05
2018-03-17T05:29:29.931Z,37.60
2018-03-17T05:31:57.448Z,35.95
2018-03-17T05:34:25.704Z,46.50
2018-03-17T05:36:53.213Z,37.28
2018-03-17T05:39:20.735Z,39.90
2018-03-17T05:41:48.231Z,27.48
2018-03-17T05:44:15.788Z,30.70
2018-03-17T05:46:43.279Z,24.83
2018-03-17T05:49:10.792Z,25.60
2018-03-17T05:51:39.063Z,21.25
2018-03-17T05:54:07.325Z,29.87
2018-03-17T05:56:35.620Z,26.33
2018-03-17T05:59:03.875Z,40.78
2018-03-17T06:01:31.376Z,36.85
2018-03-17T06:03:58.900Z,22.52
2018-03-17T06:06:26.392Z,24.17
2018-03-17T06:08:53.927Z,34.95
2018-03-17T06:11:22.195Z,26.52
2018-03-17T06:13:49.694Z,27.67
2018-03-17T06:16:17.211Z,39.50
2018-03-17T06:18:44.712Z,38.60
2018-03-17T06:21:12.228Z,37.60
2018-03-17T06:23:39.742Z,30.90
2018-03-17T06:26:07.244Z,33.67
2018-03-17T06:28:34.760Z,23.62
2018-03-17T06:31:02.284Z,36.28
2018-03-17T06:33:31.427Z,29.60
2018-03-17T06:35:58.954Z,27.85
2018-03-17T06:38:26.448Z,23.75
2018-03-17T06:40:53.974Z,27.05
2018-03-17T06:43:21.476Z,31.55
2018-03-17T06:45:48.988Z,39.28
2018-03-17T06:48:16.481Z,23.02
2018-03-17T06:50:44.020Z,23.92
2018-03-17T06:53:11.540Z,30.73
2018-03-17T06:55:39.040Z,26.42
2018-03-17T06:58:06.568Z,35.80
2018-03-17T07:00:34.839Z,27.80
2018-03-17T07:03:02.340Z,29.20
2018-03-17T07:05:29.852Z,27.73
2018-03-17T07:07:57.359Z,27.27
2018-03-17T07:10:24.894Z,26.33
2018-03-17T07:12:53.162Z,28.52
2018-03-17T07:15:21.428Z,26.02
2018-03-17T07:17:48.947Z,25.80
2018-03-17T07:20:16.590Z,24.27
2018-03-17T07:22:44.142Z,26.65
2018-03-17T07:25:11.840Z,25.25
2018-03-17T07:27:39.418Z,25.83
2018-03-17T07:30:06.940Z,25.67
2018-03-17T07:32:34.440Z,26.42
2018-03-17T07:35:01.953Z,24.17
2018-03-17T07:37:29.452Z,25.60
2018-03-17T07:39:56.959Z,26.95
2018-03-17T07:42:25.240Z,22.33
2018-03-17T07:44:52.772Z,60.92
2018-03-17T07:47:20.289Z,26.40
2018-03-17T07:49:48.648Z,27.15
2018-03-17T07:52:16.152Z,25.20
2018-03-17T07:54:43.675Z,26.87
2018-03-17T07:57:11.174Z,28.62
2018-03-17T07:59:38.704Z,27.15
2018-03-17T08:02:06.212Z,23.62
2018-03-17T08:04:33.708Z,25.55
2018-03-17T08:07:01.237Z,24.77
2018-03-17T08:09:29.492Z,25.48
2018-03-17T08:11:57.009Z,24.95
2018-03-17T08:14:24.525Z,26.05
2018-03-17T08:16:52.048Z,26.50
2018-03-17T08:19:19.587Z,27.58
2018-03-17T08:21:47.113Z,25.60
2018-03-17T08:24:15.400Z,26.95
2018-03-17T08:26:43.685Z,25.02
2018-03-17T08:29:11.203Z,24.90
2018-03-17T08:31:38.723Z,26.45
2018-03-17T08:34:06.252Z,25.27
2018-03-17T08:36:34.540Z,23.95
2018-03-17T08:39:02.804Z,24.60
2018-03-17T08:41:31.076Z,23.33
2018-03-17T08:43:59.369Z,26.45
2018-03-17T08:46:26.868Z,24.50
2018-03-17T08:48:54.384Z,23.38
2018-03-17T08:51:22.648Z,23.98
2018-03-17T08:53:50.908Z,24.50
2018-03-17T08:56:18.493Z,24.52
2018-03-17T08:58:46.774Z,26.02
2018-03-17T09:01:15.056Z,23.20
2018-03-17T09:03:43.327Z,24.02
2018-03-17T09:06:11.592Z,23.62
2018-03-17T09:08:39.104Z,24.52
2018-03-17T09:11:06.600Z,25.05
2018-03-17T09:13:34.126Z,23.20
2018-03-17T09:16:01.630Z,23.55
2018-03-17T09:18:29.123Z,24.30
2018-03-17T09:20:56.661Z,25.02
2018-03-17T09:23:24.915Z,25.60
2018-03-17T09:25:52.432Z,25.27
2018-03-17T09:28:19.929Z,25.60
2018-03-17T09:30:47.451Z,26.98
2018-03-17T09:33:14.966Z,22.50
2018-03-17T09:35:42.465Z,25.50
2018-03-17T09:38:09.976Z,22.30
2018-03-17T09:40:37.479Z,22.27
2018-03-17T09:43:04.968Z,22.70
2018-03-17T09:45:32.489Z,25.35
2018-03-17T09:48:00.045Z,24.30
2018-03-17T09:50:27.575Z,23.45
2018-03-17T09:52:55.101Z,22.80
2018-03-17T09:55:22.595Z,24.60
2018-03-17T09:57:50.870Z,26.42
2018-03-17T10:00:18.378Z,25.98
2018-03-17T10:02:45.918Z,24.52
2018-03-17T10:05:14.232Z,20.45
2018-03-17T10:07:41.741Z,22.23
2018-03-17T10:10:10.015Z,22.87
2018-03-17T10:12:37.537Z,22.67
2018-03-17T10:15:05.056Z,22.92
2018-03-17T10:17:32.552Z,25.45
2018-03-17T10:20:00.047Z,24.15
2018-03-17T10:22:27.555Z,25.42
2018-03-17T10:24:56.014Z,23.17
2018-03-17T10:27:23.584Z,20.65
2018-03-17T10:29:51.092Z,23.02
2018-03-17T10:32:18.598Z,21.90
2018-03-17T10:34:46.124Z,25.90
2018-03-17T10:37:13.625Z,24.80
2018-03-17T10:39:41.145Z,24.98
2018-03-17T10:42:08.657Z,25.65
2018-03-17T10:44:36.174Z,22.60
2018-03-17T10:47:04.469Z,24.15
2018-03-17T10:49:32.728Z,22.92
2018-03-17T10:52:01.020Z,23.25
2018-03-17T10:54:28.520Z,24.08
2018-03-17T10:56:56.022Z,21.98
2018-03-17T10:59:24.308Z,25.55
2018-03-17T11:01:52.563Z,24.20
2018-03-17T11:04:20.079Z,23.52
2018-03-17T11:06:47.576Z,20.33
2018-03-17T11:09:15.067Z,25.23
2018-03-17T11:11:44.307Z,25.05
2018-03-17T11:14:11.811Z,24.83
2018-03-17T11:16:40.092Z,24.87
2018-03-17T11:19:08.359Z,24.00
2018-03-17T11:21:35.960Z,21.92
2018-03-17T11:24:03.472Z,24.90
2018-03-17T11:26:30.971Z,25.60
2018-03-17T11:28:58.497Z,26.73
2018-03-17T11:31:26.003Z,24.67
2018-03-17T11:33:53.575Z,24.05
2018-03-17T11:36:21.843Z,23.17
2018-03-17T11:38:49.343Z,23.42
2018-03-17T11:41:16.872Z,21.65
2018-03-17T11:43:44.355Z,22.05
2018-03-17T11:46:11.841Z,23.60
2018-03-17T11:48:40.333Z,22.70
2018-03-17T11:51:08.591Z,22.98
2018-03-17T11:53:36.108Z,23.20
2018-03-17T11:56:03.611Z,23.90
2018-03-17T11:58:31.104Z,22.33
2018-03-17T12:00:58.629Z,20.55
2018-03-17T12:03:26.234Z,22.90
2018-03-17T12:05:53.756Z,19.65
2018-03-17T12:08:22.019Z,21.60
2018-03-17T12:10:49.518Z,17.52
2018-03-17T12:13:17.040Z,21.70
2018-03-17T12:15:44.547Z,22.10
2018-03-17T12:18:12.069Z,21.17
2018-03-17T12:20:39.557Z,22.00
2018-03-17T12:23:07.054Z,22.35
2018-03-17T12:25:34.580Z,22.90
2018-03-17T12:28:02.083Z,22.62
2018-03-17T12:30:29.608Z,20.55
2018-03-17T12:32:57.113Z,23.50
2018-03-17T12:35:24.626Z,21.55
2018-03-17T12:37:52.145Z,21.42
2018-03-17T12:40:21.709Z,21.33
2018-03-17T12:42:48.733Z,21.55
2018-03-17T12:45:16.241Z,21.45
2018-03-17T12:47:43.736Z,22.02
2018-03-17T12:50:12.015Z,21.77
2018-03-17T12:52:39.540Z,23.95
2018-03-17T12:55:07.061Z,20.95
2018-03-17T12:57:34.557Z,21.75
2018-03-17T13:00:02.074Z,23.15
2018-03-17T13:02:29.591Z,20.20
2018-03-17T13:04:57.871Z,18.65
2018-03-17T13:07:26.160Z,16.35
2018-03-17T13:09:54.453Z,20.40
2018-03-17T13:12:21.944Z,20.30
2018-03-17T13:14:49.458Z,16.60
2018-03-17T13:17:16.962Z,21.30
2018-03-17T13:19:44.477Z,22.58
2018-03-17T13:22:12.744Z,20.42
2018-03-17T13:24:41.027Z,18.62
2018-03-17T13:27:21.180Z,21.17
2018-03-17T13:29:48.685Z,19.70
2018-03-17T13:32:28.099Z,18.90
2018-03-17T13:34:55.616Z,19.83
2018-03-17T13:37:31.846Z,18.30
2018-03-17T13:39:59.386Z,19.77
2018-03-17T13:42:26.884Z,18.90
2018-03-17T13:44:54.385Z,22.10
2018-03-17T13:47:22.662Z,20.20
2018-03-17T13:49:50.932Z,19.73
2018-03-17T13:52:19.216Z,21.37
2018-03-17T13:54:47.473Z,20.25
2018-03-17T13:57:14.978Z,20.52
2018-03-17T13:59:42.499Z,21.25
2018-03-17T14:02:10.780Z,18.48
2018-03-17T14:04:39.085Z,20.17
2018-03-17T14:07:06.593Z,22.75
2018-03-17T14:09:34.090Z,21.55
2018-03-17T14:12:01.616Z,20.45
2018-03-17T14:14:29.128Z,20.98
2018-03-17T14:16:56.665Z,19.90
2018-03-17T14:19:24.161Z,21.67
2018-03-17T14:21:51.663Z,21.80
2018-03-17T14:24:19.188Z,20.02
2018-03-17T14:26:46.712Z,17.90
2018-03-17T14:29:15.014Z,21.12
2018-03-17T14:31:42.512Z,20.77
2018-03-17T14:34:10.016Z,15.82
2018-03-17T14:36:37.557Z,21.40
2018-03-17T14:39:05.898Z,21.33
2018-03-17T14:41:33.439Z,21.15
2018-03-17T14:44:00.940Z,23.25
2018-03-17T14:46:28.445Z,20.92
2018-03-17T14:48:55.977Z,20.75
2018-03-17T14:51:24.240Z,22.30
2018-03-17T14:53:51.760Z,20.23
2018-03-17T14:56:19.255Z,19.10
2018-03-17T14:58:46.765Z,23.02
2018-03-17T15:01:14.280Z,20.95
2018-03-17T15:03:42.547Z,22.25
2018-03-17T15:06:10.088Z,17.33
2018-03-17T15:08:37.580Z,23.30
2018-03-17T15:11:05.853Z,23.40
2018-03-17T15:13:34.146Z,23.75
2018-03-17T15:16:01.661Z,22.17
2018-03-17T15:18:29.181Z,22.65
2018-03-17T15:20:56.694Z,22.42
2018-03-17T15:23:24.204Z,24.65
2018-03-17T15:25:51.735Z,23.33
2018-03-17T15:28:20.008Z,22.42
2018-03-17T15:30:48.301Z,22.85
2018-03-17T15:33:16.555Z,24.52
2018-03-17T15:35:44.057Z,22.37
2018-03-17T15:38:11.572Z,22.05
2018-03-17T15:40:39.068Z,22.55
2018-03-17T15:43:06.622Z,18.42
2018-03-17T15:45:34.163Z,22.95
2018-03-17T15:48:02.444Z,23.20
2018-03-17T15:50:29.975Z,23.10
2018-03-17T15:52:57.614Z,24.92
2018-03-17T15:55:25.143Z,21.20
2018-03-17T15:57:52.685Z,23.45
2018-03-17T16:00:20.959Z,21.27
2018-03-17T16:02:49.264Z,20.58
2018-03-17T16:05:16.766Z,21.10
2018-03-17T16:07:44.309Z,25.58
2018-03-17T16:10:11.816Z,22.60
2018-03-17T16:12:40.117Z,21.40
2018-03-17T16:15:07.651Z,23.00
2018-03-17T16:17:35.916Z,22.80
2018-03-17T16:20:03.448Z,22.85
2018-03-17T16:22:31.032Z,20.88
2018-03-17T16:24:58.659Z,23.73
2018-03-17T16:27:26.190Z,21.48
2018-03-17T16:29:53.693Z,22.30
2018-03-17T16:32:21.258Z,20.62
2018-03-17T16:34:48.744Z,22.70
2018-03-17T16:37:16.246Z,21.20
2018-03-17T16:39:43.782Z,22.35
2018-03-17T16:42:12.063Z,22.55
2018-03-17T16:44:40.392Z,22.83
2018-03-17T16:47:07.913Z,23.33
2018-03-17T16:49:35.430Z,21.45
2018-03-17T16:52:02.965Z,22.60
2018-03-17T16:54:30.552Z,21.55
2018-03-17T16:56:59.131Z,21.58
2018-03-17T16:59:26.671Z,20.30
2018-03-17T17:01:54.243Z,18.05
2018-03-17T17:04:21.846Z,22.13
2018-03-17T17:06:50.137Z,21.83
2018-03-17T17:09:17.879Z,22.13
2018-03-17T17:11:46.153Z,20.12
2018-03-17T17:14:13.691Z,19.92
2018-03-17T17:16:41.233Z,20.75
2018-03-17T17:19:08.740Z,21.70
2018-03-17T17:21:37.027Z,20.85
2018-03-17T17:24:04.540Z,18.98
2018-03-17T17:26:32.048Z,20.20
2018-03-17T17:28:59.583Z,20.23
2018-03-17T17:31:27.094Z,20.95
2018-03-17T17:33:54.637Z,21.20
2018-03-17T17:36:22.151Z,20.00
2018-03-17T17:38:49.661Z,21.12
2018-03-17T17:41:17.188Z,18.83
2018-03-17T17:43:45.454Z,19.40
2018-03-17T17:46:12.977Z,20.58
2018-03-17T17:48:40.493Z,21.00
2018-03-17T17:51:08.755Z,20.83
2018-03-17T17:53:36.269Z,19.67
2018-03-17T17:56:03.781Z,20.62
2018-03-17T17:58:32.067Z,19.75
2018-03-17T18:01:00.327Z,20.15
2018-03-17T18:03:27.825Z,20.20
2018-03-17T18:05:55.360Z,19.70
2018-03-17T18:08:23.627Z,16.75
2018-03-17T18:10:51.916Z,20.48
2018-03-17T18:13:20.224Z,19.58
2018-03-17T18:15:47.721Z,18.85
2018-03-17T18:18:15.248Z,17.55
2018-03-17T18:20:42.784Z,21.45
2018-03-17T18:23:10.304Z,18.75
2018-03-17T18:25:37.875Z,17.08
2018-03-17T18:28:05.372Z,17.58
2018-03-17T18:30:32.905Z,15.50
2018-03-17T18:33:01.215Z,17.33
2018-03-17T18:35:28.752Z,16.50
2018-03-17T18:37:57.018Z,21.12
2018-03-17T18:40:25.295Z,19.92
2018-03-17T18:42:53.606Z,17.52
2018-03-17T18:45:21.146Z,19.45
2018-03-17T18:47:49.474Z,19.50
2018-03-17T18:50:16.972Z,18.52
2018-03-17T18:52:44.488Z,18.58
2018-03-17T18:55:12.014Z,17.58
2018-03-17T18:57:39.524Z,20.15
2018-03-17T19:00:07.051Z,18.70
2018-03-17T19:02:34.548Z,18.80
2018-03-17T19:05:02.048Z,19.17
2018-03-17T19:07:29.576Z,19.80
2018-03-17T19:09:57.084Z,19.23
2018-03-17T19:12:24.633Z,18.67
2018-03-17T19:14:52.137Z,18.08
2018-03-17T19:17:19.651Z,19.45
2018-03-17T19:19:47.153Z,19.60
2018-03-17T19:22:14.652Z,17.02
2018-03-17T19:24:42.944Z,19.27
2018-03-17T19:27:10.453Z,17.25
2018-03-17T19:29:37.983Z,18.85
2018-03-17T19:32:05.484Z,21.27
2018-03-17T19:34:32.996Z,19.98
2018-03-17T19:37:00.527Z,18.75
2018-03-17T19:39:28.797Z,19.65
2018-03-17T19:41:56.335Z,17.50
2018-03-17T19:44:23.906Z,19.23
2018-03-17T19:46:51.403Z,19.50
2018-03-17T19:49:18.942Z,18.12
2018-03-17T19:51:47.212Z,20.10
2018-03-17T19:54:14.766Z,20.45
2018-03-17T19:56:42.288Z,19.80
2018-03-17T19:59:09.795Z,18.17
2018-03-17T20:01:37.324Z,18.15
2018-03-17T20:04:04.859Z,18.67
2018-03-17T20:06:32.378Z,18.75
2018-03-17T20:09:00.644Z,18.77
2018-03-17T20:11:28.917Z,20.20
2018-03-17T20:13:57.474Z,20.35
2018-03-17T20:16:24.977Z,19.80
2018-03-17T20:18:53.277Z,19.52
2018-03-17T20:21:20.779Z,19.52
2018-03-17T20:23:48.293Z,19.60
2018-03-17T20:26:15.848Z,18.48
2018-03-17T20:28:44.115Z,20.23
2018-03-17T20:31:12.409Z,19.08
2018-03-17T20:33:39.918Z,21.05
2018-03-17T20:36:07.416Z,20.70
2018-03-17T20:38:35.720Z,23.27
2018-03-17T20:41:03.221Z,22.42
2018-03-17T20:43:30.754Z,21.70
2018-03-17T20:45:58.272Z,20.52
2018-03-17T20:48:25.775Z,21.87
2018-03-17T20:50:53.312Z,21.95
2018-03-17T20:53:20.816Z,23.42
2018-03-17T20:55:48.336Z,22.60
2018-03-17T20:58:15.870Z,21.90
2018-03-17T21:00:44.143Z,22.77
2018-03-17T21:03:12.432Z,24.05
2018-03-17T21:05:39.930Z,23.90
2018-03-17T21:08:07.443Z,22.05
2018-03-17T21:10:35.722Z,23.30
2018-03-17T21:13:03.985Z,22.13
2018-03-17T21:15:32.471Z,18.75
2018-03-17T21:18:00.234Z,21.08
2018-03-17T21:20:28.722Z,20.30
2018-03-17T21:22:57.058Z,21.25
2018-03-17T21:25:24.758Z,19.35
2018-03-17T21:27:52.419Z,22.02
2018-03-17T21:30:20.928Z,22.55
2018-03-17T21:32:48.495Z,23.30
2018-03-17T21:35:16.004Z,25.98
2018-03-17T21:37:43.509Z,23.80
2018-03-17T21:40:11.070Z,24.90
2018-03-17T21:42:38.625Z,23.58
2018-03-17T21:45:06.136Z,17.95
2018-03-17T21:47:33.644Z,24.58
2018-03-17T21:50:01.144Z,25.55
2018-03-17T21:52:28.921Z,22.75
2018-03-17T21:54:56.393Z,24.73
2018-03-17T21:57:23.916Z,23.10
2018-03-17T21:59:51.583Z,24.35
2018-03-17T22:02:19.287Z,24.48
2018-03-17T22:04:46.953Z,25.83
2018-03-17T22:07:15.331Z,22.40
2018-03-17T22:09:43.891Z,25.70
2018-03-17T22:12:11.566Z,25.40
2018-03-17T22:14:39.984Z,25.55
2018-03-17T22:17:07.614Z,21.92
2018-03-17T22:19:35.902Z,25.73
2018-03-17T22:22:04.188Z,23.80
2018-03-17T22:24:32.456Z,23.05
2018-03-17T22:27:00.728Z,24.35
2018-03-17T22:29:28.255Z,25.75
2018-03-17T22:31:55.784Z,23.17
2018-03-17T22:34:23.294Z,25.20
2018-03-17T22:36:50.790Z,24.23
2018-03-17T22:39:19.067Z,22.52
2018-03-17T22:41:47.344Z,24.70
2018-03-17T22:44:15.608Z,23.33
2018-03-17T22:46:43.898Z,23.60
2018-03-17T22:49:12.187Z,21.90
2018-03-17T22:51:39.694Z,21.42
2018-03-17T22:54:07.257Z,25.70
2018-03-17T22:56:34.752Z,22.33
2018-03-17T22:59:02.299Z,23.45
2018-03-17T23:01:30.563Z,22.55
2018-03-17T23:03:58.059Z,21.92
2018-03-17T23:06:25.588Z,21.25
2018-03-17T23:08:53.100Z,22.40
2018-03-17T23:11:20.629Z,21.12
2018-03-17T23:13:48.907Z,20.95
2018-03-17T23:16:17.176Z,21.48
2018-03-17T23:18:45.512Z,23.95
2018-03-17T23:21:13.047Z,26.12
2018-03-17T23:23:41.009Z,22.75
2018-03-17T23:26:08.518Z,21.40
2018-03-17T23:28:36.016Z,24.17
2018-03-17T23:31:03.530Z,20.05
2018-03-17T23:33:31.028Z,23.70
2018-03-17T23:35:59.312Z,27.17
2018-03-17T23:38:26.807Z,25.60
2018-03-17T23:40:54.300Z,20.42
2018-03-17T23:43:21.818Z,24.67
2018-03-17T23:45:49.317Z,25.75
2018-03-17T23:48:16.849Z,27.70
2018-03-17T23:50:44.356Z,23.55
2018-03-17T23:53:12.623Z,20.90
2018-03-17T23:55:40.922Z,25.73
2018-03-17T23:58:08.412Z,22.37
